createdAt,value
2023-09-28T00:02:48.026Z,81.93
2023-09-28T00:06:25.268Z,81.98
2023-09-28T00:10:04.910Z,81.84
2023-09-28T00:13:40.598Z,81.91
2023-09-28T00:17:18.642Z,81.72
2023-09-28T00:20:56.408Z,81.89
2023-09-28T00:24:33.982Z,82.02
2023-09-28T00:28:12.100Z,82.18
2023-09-28T00:31:49.957Z,82.22
2023-09-28T00:35:28.430Z,82.52
2023-09-28T00:39:06.849Z,82.55
2023-09-28T00:42:43.125Z,82.61
2023-09-28T00:46:20.765Z,82.89
2023-09-28T00:49:58.479Z,83.08
2023-09-28T00:53:36.238Z,83.15
2023-09-28T00:57:15.272Z,83.32
2023-09-28T01:00:51.770Z,83.61
2023-09-28T01:04:29.453Z,83.90
2023-09-28T01:08:14.139Z,83.91
2023-09-28T01:11:44.959Z,84.20
2023-09-28T01:15:23.688Z,84.40
2023-09-28T01:19:00.676Z,84.64
2023-09-28T01:22:38.193Z,84.91
2023-09-28T01:26:15.918Z,85.19
2023-09-28T01:29:53.684Z,85.41
2023-09-28T01:33:31.608Z,85.61
2023-09-28T01:37:10.425Z,85.94
2023-09-28T01:40:48.615Z,85.94
2023-09-28T01:44:24.714Z,86.26
2023-09-28T01:48:04.509Z,86.47
2023-09-28T01:51:40.018Z,86.63
2023-09-28T01:55:17.917Z,86.93
2023-09-28T01:58:55.742Z,87.18
2023-09-28T02:02:35.975Z,87.36
2023-09-28T02:06:11.120Z,87.43
2023-09-28T02:09:48.946Z,87.63
2023-09-28T02:13:26.754Z,87.67
2023-09-28T02:17:42.571Z,88.18
2023-09-28T02:20:59.316Z,88.45
2023-09-28T02:24:36.054Z,88.66
2023-09-28T02:28:13.610Z,89.32
2023-09-28T02:31:51.430Z,89.89
2023-09-28T02:35:30.310Z,89.86
2023-09-28T02:39:08.527Z,89.92
2023-09-28T02:42:44.985Z,89.98
2023-09-28T02:46:22.542Z,90.17
2023-09-28T02:50:00.278Z,90.29
2023-09-28T02:53:38.299Z,90.40
2023-09-28T02:57:15.903Z,90.66
2023-09-28T03:00:58.364Z,90.82
2023-09-28T03:04:35.236Z,90.85
2023-09-28T03:08:10.791Z,91.19
2023-09-28T03:11:47.243Z,91.51
2023-09-28T03:15:24.656Z,91.96
2023-09-28T03:19:03.515Z,92.27
2023-09-28T03:22:39.981Z,92.54
2023-09-28T03:26:17.777Z,92.56
2023-09-28T03:29:55.551Z,92.49
2023-09-28T03:33:33.143Z,92.88
2023-09-28T03:37:11.667Z,92.82
2023-09-28T03:40:49.090Z,93.09
2023-09-28T03:44:28.299Z,93.06
2023-09-28T03:48:04.665Z,93.10
2023-09-28T03:51:42.094Z,93.10
2023-09-28T03:55:24.996Z,93.06
2023-09-28T03:58:58.242Z,93.23
2023-09-28T04:02:35.259Z,93.26
2023-09-28T04:06:13.194Z,93.49
2023-09-28T04:09:51.433Z,93.75
2023-09-28T04:13:28.601Z,93.96
2023-09-28T04:17:06.427Z,93.75
2023-09-28T04:20:44.661Z,93.79
2023-09-28T04:24:21.969Z,93.89
2023-09-28T04:27:59.933Z,93.82
2023-09-28T04:31:37.563Z,93.84
2023-09-28T04:35:15.839Z,94.26
2023-09-28T04:38:53.250Z,94.23
2023-09-28T04:42:30.856Z,94.48
2023-09-28T04:46:08.678Z,94.72
2023-09-28T04:49:47.143Z,94.87
2023-09-28T04:53:24.293Z,95.11
2023-09-28T04:57:01.972Z,94.95
2023-09-28T05:00:40.340Z,95.16
2023-09-28T05:04:17.555Z,95.27
2023-09-28T05:07:55.155Z,95.36
2023-09-28T05:11:33.212Z,95.62
2023-09-28T05:15:11.274Z,95.46
2023-09-28T05:18:48.416Z,95.80
2023-09-28T05:22:30.059Z,95.90
2023-09-28T05:26:05.629Z,96.00
2023-09-28T05:29:41.521Z,96.35
2023-09-28T05:33:19.945Z,96.31
2023-09-28T05:36:57.444Z,96.38
2023-09-28T05:40:34.898Z,96.40
2023-09-28T05:44:14.159Z,96.74
2023-09-28T05:47:50.503Z,97.20
2023-09-28T05:51:29.491Z,97.94
2023-09-28T05:55:07.086Z,98.15
2023-09-28T05:58:43.976Z,98.52
2023-09-28T06:02:24.088Z,99.01
2023-09-28T06:05:59.379Z,99.44
2023-09-28T06:09:40.677Z,99.55
2023-09-28T06:13:14.784Z,99.50
2023-09-28T06:16:52.531Z,99.67
2023-09-28T06:20:30.784Z,100.00
2023-09-28T06:24:08.787Z,100.00
2023-09-28T06:27:45.981Z,99.99
2023-09-28T06:31:23.651Z,99.69
2023-09-28T06:35:02.624Z,99.52
2023-09-28T06:38:39.253Z,99.24
2023-09-28T06:42:35.010Z,99.08
2023-09-28T06:46:13.876Z,98.89
2023-09-28T06:49:33.989Z,98.08
2023-09-28T06:53:14.205Z,97.39
2023-09-28T06:56:59.942Z,96.39
2023-09-28T07:00:25.772Z,95.83
2023-09-28T07:04:03.642Z,94.91
2023-09-28T07:07:43.275Z,93.60
2023-09-28T07:11:20.941Z,92.21
2023-09-28T07:14:56.686Z,91.35
2023-09-28T07:18:34.393Z,89.84
2023-09-28T07:22:13.222Z,89.35
2023-09-28T07:25:53.243Z,88.05
2023-09-28T07:29:28.734Z,86.77
2023-09-28T07:33:06.770Z,85.75
2023-09-28T07:36:43.432Z,84.98
2023-09-28T07:40:44.181Z,83.18
2023-09-28T07:43:59.989Z,82.29
2023-09-28T07:47:40.428Z,80.19
2023-09-28T07:51:15.465Z,78.82
2023-09-28T07:54:53.375Z,79.08
2023-09-28T07:58:32.498Z,78.14
2023-09-28T08:02:14.581Z,77.31
2023-09-28T08:05:48.739Z,76.38
2023-09-28T08:09:25.321Z,75.20
2023-09-28T08:13:02.103Z,74.52
2023-09-28T08:16:40.263Z,72.64
2023-09-28T08:20:18.459Z,72.91
2023-09-28T08:23:56.097Z,72.51
2023-09-28T08:27:33.225Z,71.35
2023-09-28T08:31:11.728Z,72.57
2023-09-28T08:34:48.531Z,70.02
2023-09-28T08:38:26.310Z,70.51
2023-09-28T08:42:07.298Z,70.99
2023-09-28T08:45:42.346Z,68.72
2023-09-28T08:49:20.251Z,68.73
2023-09-28T08:52:58.624Z,66.76
2023-09-28T08:56:42.054Z,66.68
2023-09-28T09:00:16.087Z,64.80
2023-09-28T09:03:51.763Z,67.19
2023-09-28T09:07:29.712Z,64.59
2023-09-28T09:11:10.486Z,63.19
2023-09-28T09:14:44.101Z,62.74
2023-09-28T09:18:23.309Z,61.66
2023-09-28T09:21:59.893Z,61.96
2023-09-28T09:25:55.090Z,61.14
2023-09-28T09:29:16.536Z,60.81
2023-09-28T09:32:53.288Z,59.99
2023-09-28T09:36:31.405Z,58.29
2023-09-28T09:40:15.396Z,57.19
2023-09-28T09:43:46.502Z,57.60
2023-09-28T09:47:26.862Z,54.43
2023-09-28T09:51:03.956Z,53.56
2023-09-28T09:54:40.184Z,53.17
2023-09-28T09:58:19.955Z,53.18
2023-09-28T10:01:55.396Z,54.76
2023-09-28T10:05:35.619Z,52.91
2023-09-28T10:09:12.191Z,51.58
2023-09-28T10:12:49.532Z,52.17
2023-09-28T10:16:28.961Z,49.35
2023-09-28T10:20:04.491Z,49.01
2023-09-28T10:23:42.020Z,51.18
2023-09-28T10:27:19.463Z,47.22
2023-09-28T10:31:06.298Z,45.62
2023-09-28T10:34:34.823Z,45.44
2023-09-28T10:38:18.667Z,44.94
2023-09-28T10:41:52.511Z,43.68
2023-09-28T10:45:28.651Z,44.10
2023-09-28T10:49:05.925Z,42.29
2023-09-28T10:52:43.957Z,44.33
2023-09-28T10:56:21.707Z,43.48
2023-09-28T11:00:04.817Z,43.10
2023-09-28T11:03:38.177Z,43.81
2023-09-28T11:07:15.505Z,43.24
2023-09-28T11:10:57.014Z,43.66
2023-09-28T11:14:30.321Z,44.54
2023-09-28T11:18:08.016Z,46.05
2023-09-28T11:21:46.722Z,44.69
2023-09-28T11:25:43.297Z,44.34
2023-09-28T11:29:01.656Z,42.72
2023-09-28T11:32:53.248Z,41.60
2023-09-28T11:36:22.137Z,41.95
2023-09-28T11:39:54.839Z,42.56
2023-09-28T11:43:58.467Z,41.79
2023-09-28T11:47:12.625Z,44.11
2023-09-28T11:50:51.533Z,43.94
2023-09-28T11:54:28.717Z,42.90
2023-09-28T11:58:11.335Z,41.97
2023-09-28T12:01:48.088Z,41.58
2023-09-28T12:05:22.482Z,42.28
2023-09-28T12:08:59.086Z,41.98
2023-09-28T12:12:38.263Z,42.11
2023-09-28T12:16:14.747Z,41.96
2023-09-28T12:19:52.443Z,42.23
2023-09-28T12:23:30.190Z,42.47
2023-09-28T12:27:08.472Z,43.22
2023-09-28T12:30:46.036Z,43.24
2023-09-28T12:34:26.645Z,43.87
2023-09-28T12:38:05.307Z,43.70
2023-09-28T12:41:39.124Z,43.45
2023-09-28T12:45:17.104Z,43.68
2023-09-28T12:48:56.849Z,42.75
2023-09-28T12:52:33.120Z,43.04
2023-09-28T12:56:10.931Z,43.04
2023-09-28T12:59:48.225Z,43.18
2023-09-28T13:03:25.733Z,42.41
2023-09-28T13:07:04.803Z,43.57
2023-09-28T13:10:41.430Z,42.90
2023-09-28T13:14:26.846Z,42.98
2023-09-28T13:17:56.683Z,41.82
2023-09-28T13:21:35.309Z,42.17
2023-09-28T13:25:15.096Z,42.26
2023-09-28T13:28:50.161Z,43.39
2023-09-28T13:32:29.225Z,42.73
2023-09-28T13:36:07.825Z,41.76
2023-09-28T13:39:43.276Z,41.70
2023-09-28T13:43:21.387Z,40.94
2023-09-28T13:46:58.684Z,40.40
2023-09-28T13:50:37.467Z,41.35
2023-09-28T13:54:16.139Z,42.66
2023-09-28T13:57:52.127Z,40.98
2023-09-28T14:01:31.286Z,40.63
2023-09-28T14:05:09.323Z,40.07
2023-09-28T14:08:45.998Z,40.93
2023-09-28T14:12:23.324Z,41.92
2023-09-28T14:16:00.876Z,41.43
2023-09-28T14:19:38.835Z,41.50
2023-09-28T14:23:18.425Z,40.84
2023-09-28T14:26:54.602Z,40.78
2023-09-28T14:30:32.533Z,40.89
2023-09-28T14:34:09.871Z,41.75
2023-09-28T14:37:48.184Z,42.99
2023-09-28T14:41:25.192Z,43.86
2023-09-28T14:45:03.082Z,43.03
2023-09-28T14:48:42.125Z,43.30
2023-09-28T14:52:18.745Z,43.00
2023-09-28T14:55:56.392Z,43.54
2023-09-28T14:59:35.510Z,43.92
2023-09-28T15:03:12.151Z,44.41
2023-09-28T15:06:49.557Z,44.86
2023-09-28T15:10:27.418Z,45.49
2023-09-28T15:14:05.239Z,45.96
2023-09-28T15:17:43.013Z,46.25
2023-09-28T15:21:22.749Z,46.10
2023-09-28T15:24:59.772Z,46.07
2023-09-28T15:28:37.880Z,46.89
2023-09-28T15:32:15.342Z,47.17
2023-09-28T15:35:53.511Z,47.54
2023-09-28T15:39:29.562Z,48.15
2023-09-28T15:43:07.783Z,48.71
2023-09-28T15:46:45.130Z,48.94
2023-09-28T15:50:22.881Z,49.57
2023-09-28T15:54:01.403Z,50.24
2023-09-28T15:57:38.398Z,50.45
2023-09-28T16:01:19.932Z,50.98
2023-09-28T16:04:56.773Z,51.48
2023-09-28T16:08:31.841Z,51.59
2023-09-28T16:12:09.921Z,52.12
2023-09-28T16:15:47.215Z,51.77
2023-09-28T16:19:25.326Z,52.09
2023-09-28T16:23:04.295Z,52.69
2023-09-28T16:26:41.119Z,53.00
2023-09-28T16:30:18.445Z,53.47
2023-09-28T16:33:58.706Z,54.79
2023-09-28T16:37:33.812Z,55.34
2023-09-28T16:41:25.550Z,56.16
2023-09-28T16:44:50.302Z,57.07
2023-09-28T16:48:27.343Z,57.88
2023-09-28T16:52:06.207Z,58.04
2023-09-28T16:55:42.799Z,58.21
2023-09-28T16:59:20.430Z,59.23
2023-09-28T17:02:58.356Z,59.91
2023-09-28T17:06:38.093Z,59.80
2023-09-28T17:10:17.680Z,59.83
2023-09-28T17:13:51.491Z,60.50
2023-09-28T17:17:29.426Z,61.22
2023-09-28T17:21:07.153Z,61.56
2023-09-28T17:24:44.824Z,62.03
2023-09-28T17:28:22.588Z,62.51
2023-09-28T17:32:19.550Z,62.59
2023-09-28T17:35:38.063Z,62.54
2023-09-28T17:39:16.084Z,62.47
2023-09-28T17:42:56.380Z,62.62
2023-09-28T17:46:31.431Z,62.80
2023-09-28T17:50:10.122Z,63.40
2023-09-28T17:53:50.267Z,63.68
2023-09-28T17:57:26.040Z,63.90
2023-09-28T18:01:05.252Z,63.92
2023-09-28T18:04:40.906Z,64.11
2023-09-28T18:08:18.665Z,64.60
2023-09-28T18:11:56.950Z,64.98
2023-09-28T18:15:38.017Z,64.75
2023-09-28T18:19:13.514Z,64.65
2023-09-28T18:22:48.717Z,64.52
2023-09-28T18:26:30.519Z,64.32
2023-09-28T18:30:09.887Z,65.03
2023-09-28T18:33:42.232Z,64.94
2023-09-28T18:37:19.836Z,64.97
2023-09-28T18:40:57.845Z,65.01
2023-09-28T18:44:36.072Z,65.83
2023-09-28T18:48:14.706Z,66.12
2023-09-28T18:51:53.204Z,66.29
2023-09-28T18:55:29.280Z,66.35
2023-09-28T18:59:11.116Z,66.71
2023-09-28T19:02:45.039Z,67.02
2023-09-28T19:06:24.660Z,67.28
2023-09-28T19:10:02.531Z,67.86
2023-09-28T19:13:39.552Z,68.66
2023-09-28T19:17:16.897Z,68.36
2023-09-28T19:20:54.955Z,68.51
2023-09-28T19:24:33.102Z,68.73
2023-09-28T19:28:10.624Z,68.55
2023-09-28T19:31:49.421Z,68.93
2023-09-28T19:35:26.409Z,69.02
2023-09-28T19:39:02.803Z,69.62
2023-09-28T19:42:44.188Z,70.16
2023-09-28T19:46:26.576Z,70.51
2023-09-28T19:49:58.349Z,70.66
2023-09-28T19:53:34.492Z,70.91
2023-09-28T19:57:17.538Z,71.36
2023-09-28T20:00:50.145Z,71.97
2023-09-28T20:04:27.549Z,72.68
2023-09-28T20:08:05.969Z,72.81
2023-09-28T20:11:44.603Z,72.41
2023-09-28T20:15:20.298Z,72.61
2023-09-28T20:18:57.608Z,72.90
2023-09-28T20:22:45.761Z,73.18
2023-09-28T20:26:12.810Z,73.31
2023-09-28T20:29:50.761Z,73.77
2023-09-28T20:33:28.409Z,73.82
2023-09-28T20:37:06.223Z,73.69
2023-09-28T20:40:43.826Z,73.85
2023-09-28T20:44:21.656Z,73.88
2023-09-28T20:48:02.709Z,74.27
2023-09-28T20:51:38.575Z,74.44
2023-09-28T20:55:15.242Z,74.62
2023-09-28T20:58:53.251Z,74.70
2023-09-28T21:02:31.093Z,74.46
2023-09-28T21:06:09.905Z,75.06
2023-09-28T21:09:46.205Z,75.01
2023-09-28T21:13:23.776Z,75.21
2023-09-28T21:17:26.259Z,75.57
2023-09-28T21:20:49.438Z,75.90
2023-09-28T21:24:26.423Z,75.79
2023-09-28T21:28:04.635Z,76.09
2023-09-28T21:31:42.014Z,75.96
2023-09-28T21:35:19.751Z,76.46
2023-09-28T21:38:57.842Z,76.90
2023-09-28T21:42:35.760Z,77.40
2023-09-28T21:46:13.077Z,77.58
2023-09-28T21:49:51.273Z,77.76
2023-09-28T21:53:29.219Z,77.67
2023-09-28T21:57:06.880Z,77.57
2023-09-28T22:00:44.379Z,78.09
2023-09-28T22:04:21.910Z,78.43
2023-09-28T22:08:00.007Z,78.73
2023-09-28T22:11:37.459Z,78.81
2023-09-28T22:15:15.137Z,79.06
2023-09-28T22:18:53.430Z,79.30
2023-09-28T22:22:30.600Z,79.27
2023-09-28T22:26:08.421Z,79.56
2023-09-28T22:29:46.329Z,80.03
2023-09-28T22:33:24.183Z,79.95
2023-09-28T22:37:04.288Z,80.31
2023-09-28T22:40:39.470Z,80.38
2023-09-28T22:44:17.411Z,80.54
2023-09-28T22:47:55.013Z,80.60
2023-09-28T22:51:32.694Z,80.73
2023-09-28T22:55:15.834Z,80.92
2023-09-28T22:58:48.199Z,81.36
2023-09-28T23:02:26.312Z,81.73
2023-09-28T23:06:07.616Z,81.96
2023-09-28T23:09:41.518Z,81.69
2023-09-28T23:13:19.119Z,82.09
2023-09-28T23:17:03.691Z,82.23
2023-09-28T23:20:36.220Z,82.46
2023-09-28T23:24:14.997Z,82.65
2023-09-28T23:27:51.269Z,82.85
2023-09-28T23:31:29.612Z,83.12
2023-09-28T23:35:07.293Z,83.57
2023-09-28T23:38:50.513Z,83.77
2023-09-28T23:42:21.108Z,83.89
2023-09-28T23:45:59.009Z,83.97
2023-09-28T23:49:36.676Z,84.14
2023-09-28T23:53:15.118Z,84.39
2023-09-28T23:56:52.415Z,84.43
